Wetterverlauf

Letzte Wetterlage 01.11.2014 09:39
Wetterdiagramm
Tabellarische Darstellung
Datum Temperatur Windchill Feuchte Luftdruck Windrichtung Windstärke Niederschlag
01.11.2014 09:39 11,4 °C 11,4 °C 98 % 1019,1 hPa 270 0.5 0,00 mm
01.11.2014 09:19 10,2 °C 10,2 °C 98 % 1019,1 hPa 270 0.0 0,00 mm
01.11.2014 08:58 9,2 °C 9,2 °C 98 % 1019,1 hPa 270 0.0 0,00 mm
01.11.2014 08:38 8,6 °C 8,6 °C 98 % 1019,1 hPa 270 0.0 0,00 mm
01.11.2014 08:17 8,0 °C 8,0 °C 98 % 1018,3 hPa 270 0.0 0,00 mm
01.11.2014 07:56 7,6 °C 7,6 °C 98 % 1018,1 hPa 270 0.0 0,00 mm
01.11.2014 07:35 7,4 °C 7,4 °C 98 % 1019,1 hPa 270 0.0 0,00 mm
01.11.2014 07:14 7,5 °C 7,5 °C 98 % 1019,1 hPa 270 0.0 0,00 mm
01.11.2014 06:53 7,7 °C 7,7 °C 98 % 1018,1 hPa 270 0.0 0,00 mm
01.11.2014 06:33 7,8 °C 7,8 °C 98 % 1019,1 hPa 270 0.0 0,00 mm
01.11.2014 06:13 7,9 °C 7,9 °C 97 % 1019,1 hPa 270 0.0 0,00 mm
01.11.2014 05:52 8,2 °C 8,2 °C 97 % 1019,1 hPa 270 0.0 0,00 mm
01.11.2014 05:30 8,5 °C 8,5 °C 96 % 1019,1 hPa 270 0.0 0,00 mm
01.11.2014 05:10 8,8 °C 8,8 °C 96 % 1018,9 hPa 270 0.0 0,00 mm
01.11.2014 04:49 9,2 °C 9,2 °C 95 % 1019,1 hPa 270 0.0 0,00 mm
01.11.2014 04:29 9,5 °C 9,5 °C 95 % 1018,1 hPa 270 0.0 0,00 mm
01.11.2014 04:08 10,0 °C 10,0 °C 95 % 1019,1 hPa 270 0.0 0,00 mm
01.11.2014 03:48 10,0 °C 10,0 °C 93 % 1019,1 hPa 270 0.0 0,00 mm
01.11.2014 03:27 10,5 °C 10,5 °C 92 % 1019,1 hPa 270 0.0 0,00 mm
01.11.2014 03:06 11,4 °C 11,4 °C 93 % 1019,1 hPa 270 0.1 0,00 mm
01.11.2014 02:46 11,4 °C 11,4 °C 92 % 1019,1 hPa 248 0.1 0,00 mm
01.11.2014 02:25 11,6 °C 11,6 °C 92 % 1020,1 hPa 270 0.2 0,00 mm
01.11.2014 02:05 11,8 °C 11,8 °C 91 % 1020,1 hPa 293 0.2 0,00 mm
01.11.2014 01:44 11,9 °C 11,9 °C 91 % 1020,1 hPa 248 0.3 0,00 mm
01.11.2014 01:24 11,9 °C 11,9 °C 90 % 1020,1 hPa 270 0.5 0,00 mm
Empfehlen Sie wetter.com
| Mehr
Neue Wetterwarnung

Neue Niederschlagsmeldung
Neue Meldung
Regen Liveticker
    sehr starker Regen/Gewitter
    starker Regen/Gewitter
    mäßiger bis starker Regen
    mäßiger Regen
    leichter bis mäßiger Regen
    kein Regen